createdAt,value
2023-04-03T00:00:18.258Z,52.47
2023-04-03T00:05:19.847Z,53.19
2023-04-03T00:10:21.485Z,53.37
2023-04-03T00:15:23.092Z,53.31
2023-04-03T00:20:24.769Z,53.39
2023-04-03T00:25:26.436Z,54.48
2023-04-03T00:30:28.213Z,54.29
2023-04-03T00:35:30.322Z,54.08
2023-04-03T00:40:37.391Z,54.79
2023-04-03T00:45:42.333Z,54.51
2023-04-03T00:50:45.484Z,54.56
2023-04-03T00:55:48.481Z,54.43
2023-04-03T01:00:58.580Z,55.28
2023-04-03T01:06:00.745Z,54.92
2023-04-03T01:11:02.439Z,55.61
2023-04-03T01:16:06.422Z,55.72
2023-04-03T01:21:36.921Z,55.90
2023-04-03T01:26:38.982Z,55.01
2023-04-03T01:31:55.294Z,56.32
2023-04-03T01:36:57.834Z,56.53
2023-04-03T01:42:00.390Z,56.74
2023-04-03T01:47:02.225Z,57.03
2023-04-03T01:52:04.140Z,56.41
2023-04-03T01:57:06.002Z,56.72
2023-04-03T02:02:08.110Z,57.49
2023-04-03T02:07:09.761Z,56.94
2023-04-03T02:12:11.433Z,57.14
2023-04-03T02:17:13.056Z,57.55
2023-04-03T02:22:14.895Z,57.58
2023-04-03T02:27:16.975Z,58.08
2023-04-03T02:32:18.626Z,57.35
2023-04-03T02:37:20.249Z,57.91
2023-04-03T02:42:21.905Z,58.29
2023-04-03T02:47:23.584Z,57.08
2023-04-03T02:52:25.424Z,57.45
2023-04-03T02:57:27.132Z,57.48
2023-04-03T03:02:28.880Z,57.27
2023-04-03T03:07:30.540Z,57.73
2023-04-03T03:12:32.748Z,56.81
2023-04-03T03:17:36.974Z,57.10
2023-04-03T03:22:38.661Z,57.71
2023-04-03T03:27:40.836Z,57.62
2023-04-03T03:32:42.558Z,58.37
2023-04-03T03:37:44.209Z,57.73
2023-04-03T03:42:45.841Z,57.83
2023-04-03T03:47:47.483Z,58.68
2023-04-03T03:52:49.107Z,58.47
2023-04-03T03:57:50.822Z,58.88
2023-04-03T04:02:52.478Z,58.66
2023-04-03T04:07:54.213Z,58.82
2023-04-03T04:12:57.344Z,58.30
2023-04-03T04:18:00.378Z,59.14
2023-04-03T04:23:02.101Z,59.01
2023-04-03T04:28:03.749Z,58.74
2023-04-03T04:33:05.963Z,58.33
2023-04-03T04:38:09.716Z,59.38
2023-04-03T04:43:15.320Z,58.91
2023-04-03T04:48:17.181Z,58.91
2023-04-03T04:53:18.793Z,59.38
2023-04-03T04:58:21.199Z,58.50
2023-04-03T05:03:22.809Z,58.75
2023-04-03T05:08:24.652Z,58.04
2023-04-03T05:13:26.303Z,58.44
2023-04-03T05:18:28.038Z,58.20
2023-04-03T05:23:29.746Z,58.07
2023-04-03T05:28:31.389Z,57.68
2023-04-03T05:33:33.034Z,58.87
2023-04-03T05:38:34.765Z,58.61
2023-04-03T05:43:38.808Z,58.24
2023-04-03T05:48:40.919Z,56.44
2023-04-03T05:53:44.260Z,55.54
2023-04-03T05:58:46.010Z,55.56
2023-04-03T06:03:47.713Z,55.10
2023-04-03T06:08:51.233Z,55.59
2023-04-03T06:13:52.892Z,53.86
2023-04-03T06:18:54.464Z,53.67
2023-04-03T06:23:56.469Z,52.68
2023-04-03T06:28:58.434Z,52.08
2023-04-03T06:34:00.562Z,51.47
2023-04-03T06:39:02.717Z,49.92
2023-04-03T06:44:04.487Z,49.78
2023-04-03T06:49:11.512Z,49.94
2023-04-03T06:54:13.786Z,49.10
2023-04-03T06:59:16.012Z,50.84
2023-04-03T07:04:17.753Z,52.53
2023-04-03T07:09:19.577Z,51.16
2023-04-03T07:14:22.360Z,50.11
2023-04-03T07:19:25.557Z,49.62
2023-04-03T07:24:27.343Z,49.99
2023-04-03T07:29:29.002Z,49.85
2023-04-03T07:34:31.702Z,48.93
2023-04-03T07:39:33.810Z,49.19
2023-04-03T07:44:36.499Z,48.32
2023-04-03T07:49:40.706Z,48.75
2023-04-03T07:54:43.269Z,48.03
2023-04-03T07:59:44.918Z,47.74
2023-04-03T08:04:46.690Z,47.05
2023-04-03T08:09:48.470Z,46.17
2023-04-03T08:14:50.111Z,45.27
2023-04-03T08:19:51.697Z,45.25
2023-04-03T08:24:59.406Z,44.95
2023-04-03T08:30:01.501Z,44.08
2023-04-03T08:35:04.405Z,44.47
2023-04-03T08:40:12.049Z,43.47
2023-04-03T08:45:21.539Z,44.72
2023-04-03T08:50:31.040Z,43.33
2023-04-03T08:55:36.424Z,43.56
2023-04-03T09:00:52.124Z,43.18
2023-04-03T09:06:17.209Z,43.30
2023-04-03T09:11:46.110Z,43.80
2023-04-03T09:16:57.843Z,43.06
2023-04-03T09:22:45.786Z,43.10
2023-04-03T09:27:52.307Z,42.73
2023-04-03T09:32:56.370Z,41.78
2023-04-03T09:38:19.571Z,42.10
2023-04-03T09:43:27.118Z,41.26
2023-04-03T09:48:29.330Z,40.72
2023-04-03T09:53:33.688Z,40.34
2023-04-03T09:58:49.536Z,41.42
2023-04-03T10:04:12.639Z,41.15
2023-04-03T10:09:26.518Z,40.33
2023-04-03T10:14:30.039Z,40.04
2023-04-03T10:19:47.211Z,40.15
2023-04-03T10:25:01.584Z,40.13
2023-04-03T10:30:21.497Z,39.95
2023-04-03T10:35:41.420Z,40.59
2023-04-03T10:40:58.677Z,39.43
2023-04-03T10:46:17.701Z,38.79
2023-04-03T10:51:22.129Z,39.70
2023-04-03T10:56:40.623Z,39.66
2023-04-03T11:01:45.187Z,38.16
2023-04-03T11:06:58.260Z,40.60
2023-04-03T11:12:31.062Z,42.67
2023-04-03T11:17:44.374Z,42.60
2023-04-03T11:22:58.623Z,42.61
2023-04-03T11:28:03.562Z,43.59
2023-04-03T11:33:20.218Z,44.13
2023-04-03T11:38:37.163Z,42.55
2023-04-03T11:43:57.561Z,42.50
2023-04-03T11:48:59.756Z,43.03
2023-04-03T11:54:44.453Z,43.12
2023-04-03T11:59:47.224Z,42.90
2023-04-03T12:05:29.186Z,44.03
2023-04-03T12:10:32.672Z,42.24
2023-04-03T12:15:37.950Z,42.69
2023-04-03T12:20:52.177Z,43.42
2023-04-03T12:26:01.595Z,42.71
2023-04-03T12:31:06.650Z,40.86
2023-04-03T12:36:19.961Z,42.37
2023-04-03T12:41:40.849Z,40.54
2023-04-03T12:46:53.601Z,38.03
2023-04-03T12:51:55.644Z,36.99
2023-04-03T12:57:20.402Z,37.39
2023-04-03T13:02:31.106Z,36.65
2023-04-03T13:07:35.828Z,36.58
2023-04-03T13:12:48.294Z,34.88
2023-04-03T13:17:52.696Z,34.36
2023-04-03T13:23:03.567Z,34.81
2023-04-03T13:28:13.768Z,34.50
2023-04-03T13:33:27.831Z,35.39
2023-04-03T13:38:34.037Z,35.85
2023-04-03T13:43:38.118Z,35.48
2023-04-03T13:48:43.832Z,35.68
2023-04-03T13:53:53.565Z,34.72
2023-04-03T13:59:04.143Z,35.37
2023-04-03T14:04:16.148Z,34.48
2023-04-03T14:09:19.644Z,34.26
2023-04-03T14:14:31.774Z,35.05
2023-04-03T14:19:36.812Z,34.25
2023-04-03T14:24:39.651Z,34.30
2023-04-03T14:29:41.259Z,35.45
2023-04-03T14:34:44.341Z,33.10
2023-04-03T14:39:46.807Z,34.75
2023-04-03T14:44:48.661Z,34.01
2023-04-03T14:49:50.658Z,34.90
2023-04-03T14:54:53.769Z,34.79
2023-04-03T14:59:55.560Z,34.60
2023-04-03T15:04:58.510Z,36.25
2023-04-03T15:10:18.966Z,33.69
2023-04-03T15:15:22.802Z,34.64
2023-04-03T15:20:27.445Z,35.23
2023-04-03T15:25:29.921Z,36.21
2023-04-03T15:30:31.787Z,35.34
2023-04-03T15:35:33.616Z,35.17
2023-04-03T15:40:35.508Z,35.37
2023-04-03T15:45:38.507Z,35.51
2023-04-03T15:50:41.258Z,35.43
2023-04-03T15:55:43.067Z,34.68
2023-04-03T16:00:44.943Z,35.26
2023-04-03T16:05:47.075Z,35.12
2023-04-03T16:10:48.813Z,35.44
2023-04-03T16:15:50.595Z,35.74
2023-04-03T16:20:52.469Z,35.99
2023-04-03T16:25:54.290Z,35.34
2023-04-03T16:30:56.134Z,33.95
2023-04-03T16:35:57.967Z,34.61
2023-04-03T16:41:03.563Z,34.69
2023-04-03T16:46:05.591Z,34.61
2023-04-03T16:51:07.409Z,34.82
2023-04-03T16:56:09.145Z,35.90
2023-04-03T17:01:19.423Z,34.78
2023-04-03T17:06:24.430Z,35.46
2023-04-03T17:11:26.761Z,35.65
2023-04-03T17:16:30.258Z,34.43
2023-04-03T17:21:34.428Z,34.51
2023-04-03T17:26:37.825Z,34.15
2023-04-03T17:31:39.989Z,34.21
2023-04-03T17:36:41.874Z,34.68
2023-04-03T17:41:45.913Z,34.30
2023-04-03T17:46:48.156Z,34.08
2023-04-03T17:51:49.891Z,34.51
2023-04-03T17:56:52.492Z,34.84
2023-04-03T18:01:54.774Z,34.86
2023-04-03T18:06:57.015Z,34.93
2023-04-03T18:12:02.945Z,35.11
2023-04-03T18:17:06.693Z,34.88
2023-04-03T18:22:19.523Z,35.19
2023-04-03T18:27:26.547Z,35.55
2023-04-03T18:32:29.157Z,34.78
2023-04-03T18:37:31.904Z,35.72
2023-04-03T18:42:34.106Z,34.95
2023-04-03T18:47:37.599Z,35.80
2023-04-03T18:52:40.142Z,35.56
2023-04-03T18:57:42.657Z,36.71
2023-04-03T19:02:46.787Z,35.73
2023-04-03T19:07:50.810Z,36.08
2023-04-03T19:12:53.023Z,35.87
2023-04-03T19:17:55.430Z,36.00
2023-04-03T19:22:58.366Z,36.16
2023-04-03T19:28:00.984Z,36.44
2023-04-03T19:33:03.707Z,36.27
2023-04-03T19:38:06.455Z,36.12
2023-04-03T19:43:10.380Z,36.01
2023-04-03T19:48:12.894Z,36.21
2023-04-03T19:53:22.900Z,35.87
2023-04-03T19:58:28.030Z,36.43
2023-04-03T20:03:30.739Z,36.89
2023-04-03T20:08:34.912Z,36.30
2023-04-03T20:13:38.637Z,36.14
2023-04-03T20:18:42.129Z,36.42
2023-04-03T20:23:44.030Z,36.11
2023-04-03T20:28:45.720Z,36.24
2023-04-03T20:33:48.981Z,36.18
2023-04-03T20:38:52.817Z,36.33
2023-04-03T20:43:54.665Z,36.27
2023-04-03T20:48:57.921Z,36.46
2023-04-03T20:53:59.556Z,35.70
2023-04-03T20:59:04.832Z,36.16
2023-04-03T21:04:46.469Z,35.78
2023-04-03T21:10:25.385Z,36.16
2023-04-03T21:16:00.113Z,36.10
2023-04-03T21:21:03.020Z,36.12
2023-04-03T21:26:04.624Z,36.48
2023-04-03T21:31:06.435Z,36.52
2023-04-03T21:36:09.209Z,37.00
2023-04-03T21:41:11.024Z,37.29
2023-04-03T21:46:12.760Z,37.96
2023-04-03T21:51:14.361Z,37.63
2023-04-03T21:56:15.938Z,38.09
2023-04-03T22:01:18.963Z,37.72
2023-04-03T22:06:20.706Z,38.21
2023-04-03T22:11:24.687Z,37.80
2023-04-03T22:16:26.755Z,38.15
2023-04-03T22:21:28.509Z,38.09
2023-04-03T22:26:30.104Z,38.36
2023-04-03T22:31:31.728Z,38.77
2023-04-03T22:36:33.344Z,38.35
2023-04-03T22:41:34.975Z,39.19
2023-04-03T22:46:36.621Z,38.53
2023-04-03T22:51:38.241Z,38.60
2023-04-03T22:56:39.826Z,38.00
2023-04-03T23:01:41.813Z,37.76
2023-04-03T23:06:43.653Z,37.87
2023-04-03T23:11:45.298Z,37.76
2023-04-03T23:16:46.935Z,37.42
2023-04-03T23:46:31.213Z,38.69
2023-04-03T23:51:32.909Z,38.75
2023-04-03T23:56:34.613Z,38.73
